Time;durP1;ratioP1;P1;durP2;ratioP2;P2;SDS_P1;SDS_P2;PMS_P1;PMS_P2;Temp;Humidity;BMP_temperature;BMP_pressure;BME280_temperature;BME280_humidity;BME280_pressure;Samples;Min_cycle;Max_cycle;Signal;HPM_P1;HPM_P2
2021/12/11 00:03:36;;;;;;;37.25;25.75;;;;;;;-2.87;91.44;98747.97;10504346;28;20105;-71
2021/12/11 00:08:40;;;;;;;43.17;27.60;;;;;;;-2.80;91.04;98760.81;10503427;28;20050;-72
2021/12/11 00:13:44;;;;;;;32.92;24.90;;;;;;;-2.88;90.97;98759.09;10502045;28;20049;-71
2021/12/11 00:18:51;;;;;;;38.80;28.08;;;;;;;-2.86;91.77;98763.41;10503380;28;20037;-71
2021/12/11 00:24:08;;;;;;;33.53;25.73;;;;;;;-2.85;91.62;98772.81;10502609;28;20044;-71
2021/12/11 00:29:12;;;;;;;32.55;25.02;;;;;;;-2.88;91.65;98771.94;10502943;28;20045;-71
2021/12/11 00:34:16;;;;;;;37.00;26.13;;;;;;;-2.92;92.06;98778.84;10500848;28;20476;-71
2021/12/11 00:39:18;;;;;;;32.10;24.60;;;;;;;-2.97;92.11;98785.66;10502223;28;20041;-72
2021/12/11 00:44:35;;;;;;;37.28;25.80;;;;;;;-3.03;92.24;98787.38;10501237;28;20071;-72
2021/12/11 00:49:45;;;;;;;40.53;26.77;;;;;;;-3.06;91.95;98793.34;10501108;28;20044;-71
2021/12/11 00:54:47;;;;;;;39.78;27.05;;;;;;;-3.00;91.74;98807.94;10501156;28;20489;-71
2021/12/11 01:00:09;;;;;;;38.20;27.48;;;;;;;-2.92;91.42;98821.66;10501193;28;20044;-71
2021/12/11 01:05:11;;;;;;;38.78;25.67;;;;;;;-3.01;91.38;98831.91;10500598;28;20044;-71
2021/12/11 01:10:23;;;;;;;41.15;27.92;;;;;;;-3.04;91.26;98835.34;10500871;28;20043;-71
2021/12/11 01:15:35;;;;;;;44.58;28.33;;;;;;;-2.98;91.13;98849.94;10500378;28;20040;-71
2021/12/11 01:20:49;;;;;;;44.30;28.75;;;;;;;-3.10;91.33;98855.88;10500484;28;20064;-71
2021/12/11 01:25:51;;;;;;;36.25;27.48;;;;;;;-3.07;91.31;98869.59;10498712;28;20045;-71
2021/12/11 01:30:54;;;;;;;39.97;27.95;;;;;;;-2.87;90.12;98868.84;10499830;28;20044;-71
2021/12/11 01:35:56;;;;;;;45.97;29.27;;;;;;;-2.84;89.94;98887.69;10499045;28;20414;-71
2021/12/11 01:41:03;;;;;;;42.38;28.65;;;;;;;-3.01;89.37;98893.63;10500074;28;20051;-71
2021/12/11 01:46:06;;;;;;;45.78;27.60;;;;;;;-3.19;89.68;98890.09;10498036;28;20048;-71
2021/12/11 01:51:20;;;;;;;35.08;26.90;;;;;;;-2.96;89.29;98894.53;10499473;28;20041;-72
2021/12/11 01:56:25;;;;;;;32.10;25.00;;;;;;;-2.89;88.33;98904.81;10500410;28;20045;-71
2021/12/11 02:01:43;;;;;;;31.23;24.77;;;;;;;-2.89;88.27;98911.66;10499976;28;20060;-71
2021/12/11 02:06:47;;;;;;;28.52;24.38;;;;;;;-3.02;88.30;98917.63;10497883;28;20060;-70
2021/12/11 02:11:59;;;;;;;36.85;26.58;;;;;;;-3.07;88.68;98917.59;10497451;28;20402;-72
2021/12/11 02:17:03;;;;;;;30.30;24.77;;;;;;;-3.09;88.51;98937.31;10498929;28;20037;-71
2021/12/11 02:22:15;;;;;;;31.58;23.77;;;;;;;-3.30;89.40;98950.88;10498954;28;20385;-71
2021/12/11 02:27:43;;;;;;;34.33;25.05;;;;;;;-3.39;89.58;98954.25;10498382;28;20044;-72
2021/12/11 02:32:57;;;;;;;31.88;24.15;;;;;;;-3.49;89.83;98967.03;10479912;28;20052;-72
2021/12/11 02:38:10;;;;;;;38.60;26.45;;;;;;;-3.38;88.68;98967.94;10498005;28;20048;-72
2021/12/11 02:43:32;;;;;;;27.13;22.70;;;;;;;-3.26;87.57;98975.75;10499887;28;20036;-71
2021/12/11 02:48:54;;;;;;;28.13;23.25;;;;;;;-3.30;87.04;98974.00;10501227;28;20041;-72
2021/12/11 02:54:28;;;;;;;37.60;24.48;;;;;;;-3.58;87.48;98980.66;10498987;28;20060;-71
2021/12/11 02:59:33;;;;;;;35.10;25.25;;;;;;;-3.68;88.96;99000.25;10506674;28;20058;-71
2021/12/11 03:04:38;;;;;;;31.83;24.05;;;;;;;-3.57;87.96;98995.22;10488905;28;20394;-70
2021/12/11 03:09:46;;;;;;;35.22;24.85;;;;;;;-3.68;88.31;99000.25;10506919;28;20041;-72
2021/12/11 03:14:47;;;;;;;;;;;;;;;-3.73;88.34;99013.91;10506398;28;20045;-72
2021/12/11 03:19:51;;;;;;;47.70;25.67;;;;;;;-3.66;88.37;99026.81;10504828;28;19970;-71
2021/12/11 03:24:53;;;;;;;39.97;25.42;;;;;;;-3.70;87.95;99030.22;10504972;28;20067;-71
2021/12/11 03:29:55;;;;;;;41.28;25.40;;;;;;;-3.75;87.95;99049.84;10506620;28;20434;-72
2021/12/11 03:34:57;;;;;;;34.72;24.40;;;;;;;-3.95;88.84;99061.63;10505101;28;20456;-70
2021/12/11 03:39:59;;;;;;;44.63;25.70;;;;;;;-3.90;88.36;99062.53;10504074;28;20056;-71
2021/12/11 03:45:10;;;;;;;37.95;25.00;;;;;;;-3.82;87.96;99076.31;10505895;28;20049;-72
2021/12/11 03:50:15;;;;;;;45.50;27.02;;;;;;;-3.90;87.45;99081.34;10506890;28;20040;-71
2021/12/11 03:55:24;;;;;;;48.40;26.27;;;;;;;-3.83;86.71;99087.44;10504833;28;20052;-71
2021/12/11 04:00:50;;;;;;;48.72;26.83;;;;;;;-3.89;86.73;99087.38;10505162;28;20082;-71
2021/12/11 04:05:52;;;;;;;51.55;27.13;;;;;;;-3.96;86.76;99101.84;10505100;28;20083;-71
2021/12/11 04:10:55;;;;;;;44.00;27.38;;;;;;;-4.05;87.79;99109.44;10503902;28;20094;-72
2021/12/11 04:15:57;;;;;;;48.15;28.27;;;;;;;-4.11;87.93;99119.63;10504451;28;20062;-71
2021/12/11 04:20:59;;;;;;;54.75;28.50;;;;;;;-4.26;88.81;99127.97;10504251;28;20058;-71
2021/12/11 04:26:02;;;;;;;65.82;30.02;;;;;;;-4.33;89.87;99133.91;10502984;28;20102;-71
2021/12/11 04:31:08;;;;;;;55.42;26.45;;;;;;;-4.14;88.51;99133.28;10503964;28;20048;-71
2021/12/11 04:36:15;;;;;;;47.77;27.30;;;;;;;-4.23;88.15;99156.25;10485362;28;20049;-71
2021/12/11 04:41:24;;;;;;;41.53;24.98;;;;;;;-3.93;86.31;99149.81;10502582;28;20041;-71
2021/12/11 04:46:25;;;;;;;42.78;25.13;;;;;;;-4.18;86.59;99161.44;10504037;28;20048;-72
2021/12/11 04:51:38;;;;;;;37.30;24.63;;;;;;;-4.44;88.28;99173.91;10503313;28;20041;-72
2021/12/11 05:02:36;;;;;;;46.45;26.88;;;;;;;-4.50;89.00;99200.34;10503439;28;20482;-71
2021/12/11 05:07:44;;;;;;;34.72;24.13;;;;;;;-4.55;89.57;99198.56;10502480;28;20048;-71
2021/12/11 05:12:50;;;;;;;37.78;24.90;;;;;;;-4.33;87.52;99218.56;10500457;28;20040;-72
2021/12/11 05:17:54;;;;;;;42.75;25.17;;;;;;;-4.31;86.69;99234.81;10503607;28;20045;-70
2021/12/11 05:22:55;;;;;;;38.78;23.95;;;;;;;-4.56;86.99;99238.72;10501094;28;20076;-71
2021/12/11 05:27:57;;;;;;;42.22;24.55;;;;;;;-4.64;87.73;99251.44;10502313;28;20053;-71
2021/12/11 05:32:59;;;;;;;43.38;26.00;;;;;;;-4.86;88.51;99255.34;10501169;28;20482;-71
2021/12/11 05:38:04;;;;;;;55.58;27.35;;;;;;;-4.53;88.23;99253.28;10500816;28;20048;-72
2021/12/11 05:43:06;;;;;;;48.70;26.80;;;;;;;-4.47;87.16;99264.53;10499890;28;20090;-72
2021/12/11 05:48:09;;;;;;;55.28;28.25;;;;;;;-4.51;87.77;99282.41;10501203;28;20106;-71
2021/12/11 05:53:12;;;;;;;55.35;30.10;;;;;;;-4.47;88.00;99294.41;10501727;28;20120;-73
2021/12/11 05:58:24;;;;;;;55.33;29.20;;;;;;;-4.50;88.51;99299.53;10502123;28;20052;-71
2021/12/11 06:03:26;;;;;;;60.08;30.27;;;;;;;-4.49;88.43;99312.38;10484861;28;20048;-72
2021/12/11 06:08:31;;;;;;;57.65;29.98;;;;;;;-4.66;88.57;99324.88;10483469;28;20055;-71
2021/12/11 06:13:33;;;;;;;51.55;28.88;;;;;;;-4.43;87.64;99326.97;10501291;28;20059;-71
2021/12/11 06:18:36;;;;;;;50.28;28.95;;;;;;;-4.59;87.75;99337.00;10501157;28;20054;-72
2021/12/11 06:23:38;;;;;;;57.38;27.55;;;;;;;-4.62;88.55;99343.75;10502119;28;20135;-73
2021/12/11 06:28:40;;;;;;;48.45;26.95;;;;;;;-4.40;86.74;99352.69;10509200;28;20048;-71
2021/12/11 06:33:42;;;;;;;73.60;34.45;;;;;;;-4.40;86.48;99357.84;10505882;28;20060;-72
2021/12/11 06:38:47;;;;;;;53.22;28.70;;;;;;;-4.45;86.63;99374.84;10506569;28;20136;-72
2021/12/11 06:43:49;;;;;;;49.85;27.88;;;;;;;-4.66;87.78;99394.13;10506423;28;20036;-72
2021/12/11 06:48:51;;;;;;;56.35;28.40;;;;;;;-4.70;89.01;99402.59;10506350;28;20045;-72
2021/12/11 06:53:58;;;;;;;56.92;29.92;;;;;;;-4.47;87.47;99410.75;10505845;28;20097;-73
2021/12/11 06:59:00;;;;;;;53.05;28.80;;;;;;;-4.49;86.95;99419.25;10504950;28;20405;-71
2021/12/11 07:04:04;;;;;;;53.75;29.00;;;;;;;-4.32;86.33;99421.28;10504463;28;20049;-71
2021/12/11 07:09:09;;;;;;;56.15;27.48;;;;;;;-4.40;86.68;99427.09;10504469;28;20413;-71
2021/12/11 07:14:16;;;;;;;56.00;27.88;;;;;;;-4.38;86.54;99430.56;10506996;28;20048;-71
2021/12/11 07:19:18;;;;;;;;;;;;;;;-4.51;86.78;99446.56;10506456;28;20048;-71
2021/12/11 07:24:24;;;;;;;49.63;26.95;;;;;;;-4.47;88.17;99458.59;10505081;28;19924;-71
2021/12/11 07:29:26;;;;;;;55.95;28.77;;;;;;;-4.59;88.49;99467.78;10502690;28;20094;-71
2021/12/11 07:34:28;;;;;;;52.53;28.40;;;;;;;-4.50;89.27;99476.50;10502753;28;20409;-72
2021/12/11 07:39:30;;;;;;;50.22;27.55;;;;;;;-4.19;89.27;99494.22;10504065;28;20048;-72
2021/12/11 07:44:32;;;;;;;50.58;28.95;;;;;;;-4.15;88.18;99497.72;10504377;28;20087;-71
2021/12/11 07:49:35;;;;;;;46.83;27.77;;;;;;;-4.35;88.41;99508.44;10502981;28;20048;-71
2021/12/11 07:54:37;;;;;;;50.40;28.55;;;;;;;-4.44;89.03;99517.66;10503483;28;20123;-71
2021/12/11 07:59:38;;;;;;;52.78;28.15;;;;;;;-4.43;89.52;99527.94;10503343;28;20044;-72
2021/12/11 08:04:40;;;;;;;58.80;31.63;;;;;;;-4.39;89.38;99549.41;10503211;28;20052;-72
2021/12/11 08:09:42;;;;;;;58.97;30.27;;;;;;;-4.20;89.13;99558.34;10502920;28;20044;-73
2021/12/11 08:14:44;;;;;;;63.33;35.35;;;;;;;-4.14;88.61;99568.72;10502201;28;20056;-72
2021/12/11 08:19:46;;;;;;;65.30;34.17;;;;;;;-4.12;88.53;99575.63;10500998;28;20052;-71
2021/12/11 08:24:47;;;;;;;66.32;35.05;;;;;;;-4.12;88.82;99585.91;10502798;28;20448;-73
2021/12/11 08:29:52;;;;;;;66.82;34.72;;;;;;;-4.07;89.26;99596.25;10500032;28;20102;-72
2021/12/11 08:34:54;;;;;;;60.85;32.72;;;;;;;-3.98;89.11;99605.84;10500771;28;20045;-72
2021/12/11 08:39:56;;;;;;;57.17;32.47;;;;;;;-3.87;89.35;99610.34;10487004;28;20032;-72
2021/12/11 08:45:05;;;;;;;63.50;34.55;;;;;;;-3.84;89.41;99618.09;10471477;28;20045;-73
2021/12/11 08:50:13;;;;;;;67.20;36.13;;;;;;;-3.71;89.77;99634.63;10495729;28;20040;-71
2021/12/11 08:55:20;;;;;;;60.33;33.72;;;;;;;-3.45;88.94;99647.06;10491312;28;20447;-71
2021/12/11 09:00:27;;;;;;;53.42;32.22;;;;;;;-3.36;89.22;99650.69;10458914;28;20095;-72
2021/12/11 09:05:36;;;;;;;56.08;33.28;;;;;;;-3.30;89.54;99655.06;10456796;28;20518;-73
2021/12/11 09:10:44;;;;;;;59.47;35.55;;;;;;;-3.23;89.69;99671.44;10456122;28;20048;-73
2021/12/11 09:15:57;;;;;;;61.42;34.80;;;;;;;-3.09;90.07;99677.72;10494535;28;20083;-72
2021/12/11 09:21:12;;;;;;;65.63;36.25;;;;;;;-2.99;89.18;99673.59;10498479;28;20102;-72
2021/12/11 09:26:24;;;;;;;69.20;37.25;;;;;;;-2.89;89.15;99678.03;10498875;28;20533;-72
2021/12/11 09:31:33;;;;;;;65.70;37.00;;;;;;;-2.75;88.70;99693.69;10498508;28;20123;-72
2021/12/11 09:36:41;;;;;;;56.67;33.58;;;;;;;-2.64;87.53;99699.88;10497484;28;20050;-73
2021/12/11 09:41:42;;;;;;;55.58;33.92;;;;;;;-2.63;86.75;99715.34;10498969;28;20041;-72
2021/12/11 09:46:52;;;;;;;55.85;32.47;;;;;;;-2.48;86.37;99713.84;10499027;28;20429;-72
2021/12/11 09:52:02;;;;;;;50.50;32.55;;;;;;;-2.57;86.46;99720.59;10498632;28;20049;-72
2021/12/11 09:57:08;;;;;;;55.85;32.75;;;;;;;-2.49;86.60;99730.13;10497875;28;20102;-72
2021/12/11 10:02:15;;;;;;;51.13;32.55;;;;;;;-2.41;86.38;99728.53;10505349;28;20046;-71
2021/12/11 10:07:29;;;;;;;59.25;35.70;;;;;;;-2.33;86.78;99729.53;10505804;28;20045;-71
2021/12/11 10:12:35;;;;;;;65.65;36.80;;;;;;;-2.29;87.11;99741.59;10506011;28;20040;-72
2021/12/11 10:17:42;;;;;;;65.57;36.13;;;;;;;-2.23;87.59;99745.97;10504692;28;20125;-71
2021/12/11 10:22:45;;;;;;;76.63;37.67;;;;;;;-2.03;88.20;99762.59;10505946;28;20048;-72
2021/12/11 10:27:48;;;;;;;60.05;37.13;;;;;;;-1.90;88.01;99761.06;10506443;28;20430;-72
2021/12/11 10:32:51;;;;;;;61.22;35.75;;;;;;;-1.53;87.18;99773.56;10505534;28;20041;-71
2021/12/11 10:37:53;;;;;;;60.17;34.50;;;;;;;-1.57;87.57;99779.53;10504594;28;20041;-72
2021/12/11 10:43:00;;;;;;;58.95;34.88;;;;;;;-1.56;88.03;99788.13;10504521;28;20537;-72
2021/12/11 10:48:09;;;;;;;45.28;30.63;;;;;;;-1.11;86.57;99781.78;10504457;28;20124;-72
2021/12/11 10:53:15;;;;;;;50.15;30.60;;;;;;;-0.68;83.99;99790.84;10504799;28;20066;-72
2021/12/11 10:58:22;;;;;;;47.53;31.17;;;;;;;-0.79;84.96;99810.53;10504875;28;20106;-72
2021/12/11 11:03:25;;;;;;;53.53;32.03;;;;;;;-0.49;84.25;99809.09;10504299;28;20056;-73
2021/12/11 11:08:29;;;;;;;33.63;26.40;;;;;;;-0.41;84.59;99821.22;10503963;28;20127;-73
2021/12/11 11:13:31;;;;;;;33.20;25.48;;;;;;;-0.28;83.74;99837.69;10502350;28;20106;-73
2021/12/11 11:18:33;;;;;;;35.05;25.17;;;;;;;-0.42;84.54;99858.22;10505160;28;20097;-74
2021/12/11 11:23:43;;;;;;;40.70;27.80;;;;;;;-0.35;83.84;99851.44;10504973;28;20041;-73
2021/12/11 11:28:45;;;;;;;30.43;19.83;;;;;;;-0.16;83.44;99858.47;10505060;28;20045;-72
2021/12/11 11:33:48;;;;;;;38.80;26.80;;;;;;;-0.35;85.00;99872.09;10503212;28;20086;-72
2021/12/11 11:38:55;;;;;;;44.55;30.52;;;;;;;-0.46;85.35;99877.13;10502134;28;20068;-73
2021/12/11 11:43:59;;;;;;;54.13;34.40;;;;;;;-0.63;86.27;99887.28;10503496;28;20552;-73
2021/12/11 11:49:01;;;;;;;53.03;34.97;;;;;;;-0.73;87.05;99892.31;10502534;28;20048;-72
2021/12/11 11:54:05;;;;;;;59.30;35.47;;;;;;;-0.63;86.80;99895.00;10502166;28;20037;-73
2021/12/11 11:59:10;;;;;;;58.72;34.80;;;;;;;-0.54;87.38;99902.84;10502168;28;20500;-72
2021/12/11 12:04:15;;;;;;;52.42;34.17;;;;;;;-0.51;87.53;99914.94;10502182;28;20094;-72
2021/12/11 12:09:17;;;;;;;52.58;33.90;;;;;;;-0.41;87.95;99906.44;10502164;28;20478;-72
2021/12/11 12:14:23;;;;;;;61.83;34.83;;;;;;;-0.31;86.47;99922.88;10501909;28;20441;-72
2021/12/11 12:19:26;;;;;;;61.17;36.83;;;;;;;-0.37;88.23;99935.75;10501504;28;20161;-73
2021/12/11 12:24:31;;;;;;;64.55;35.22;;;;;;;-0.10;87.59;99935.16;10500068;28;20055;-72
2021/12/11 12:29:35;;;;;;;64.05;37.55;;;;;;;-0.21;87.14;99937.66;10500606;28;20044;-72
2021/12/11 12:34:37;;;;;;;67.53;37.38;;;;;;;-0.34;87.15;99944.41;10500763;28;20043;-72
2021/12/11 12:39:43;;;;;;;72.57;38.40;;;;;;;-0.39;87.58;99951.25;10501486;28;20048;-73
2021/12/11 12:44:56;;;;;;;70.20;39.35;;;;;;;-0.45;89.02;99958.91;10482634;28;20056;-73
2021/12/11 12:50:02;;;;;;;77.75;40.10;;;;;;;-0.33;88.26;99971.09;10500866;28;20401;-72
2021/12/11 12:55:15;;;;;;;72.72;38.97;;;;;;;-0.18;87.47;99980.72;10500672;28;20048;-72
2021/12/11 13:00:29;;;;;;;74.68;40.75;;;;;;;-0.24;87.80;99986.69;10499744;28;20452;-72
2021/12/11 13:05:38;;;;;;;82.07;40.63;;;;;;;-0.31;88.11;99996.09;10499947;28;20413;-74
2021/12/11 13:10:48;;;;;;;73.55;39.97;;;;;;;0.02;87.42;99993.84;10499872;28;20094;-73
2021/12/11 13:16:01;;;;;;;74.65;39.42;;;;;;;-0.04;86.97;100010.19;10499691;28;20044;-73
2021/12/11 13:21:20;;;;;;;79.35;40.33;;;;;;;-0.04;87.38;100012.75;10499417;28;20052;-73
2021/12/11 13:26:26;;;;;;;71.43;38.50;;;;;;;-0.07;87.59;100023.06;10500065;28;20045;-73
2021/12/11 13:31:33;;;;;;;72.18;38.67;;;;;;;-0.12;88.64;100037.63;10499113;28;20051;-71
2021/12/11 13:36:35;;;;;;;82.18;41.97;;;;;;;-0.16;88.72;100048.78;10498849;28;20060;-72
2021/12/11 13:41:41;;;;;;;75.18;39.80;;;;;;;-0.12;88.36;100061.75;10497689;28;20036;-72
2021/12/11 13:46:48;;;;;;;79.32;40.85;;;;;;;-0.14;89.05;100073.78;10499799;28;20044;-73
2021/12/11 13:51:50;;;;;;;73.43;40.00;;;;;;;-0.12;88.39;100085.00;10499052;28;20044;-73
2021/12/11 13:56:56;;;;;;;76.93;41.50;;;;;;;-0.31;89.82;100086.50;10499315;28;20041;-73
2021/12/11 14:01:58;;;;;;;79.97;40.83;;;;;;;-0.29;89.79;100102.88;10499732;28;20449;-72
2021/12/11 14:07:15;;;;;;;71.68;40.28;;;;;;;0.01;88.20;100106.72;10498583;28;20453;-71
2021/12/11 14:12:16;;;;;;;59.53;31.07;;;;;;;-0.26;89.62;100122.72;10498649;28;20398;-72
2021/12/11 14:17:19;;;;;;;74.68;40.50;;;;;;;-0.28;89.04;100129.56;10498237;28;20049;-72
2021/12/11 14:22:23;;;;;;;71.15;37.67;;;;;;;-0.34;90.14;100129.50;10498756;28;20047;-72
2021/12/11 14:27:25;;;;;;;71.53;38.25;;;;;;;-0.31;90.19;100137.28;10498022;28;20119;-72
2021/12/11 14:32:34;;;;;;;76.35;42.15;;;;;;;-0.12;90.00;100138.41;10496954;28;20149;-72
2021/12/11 14:37:36;;;;;;;77.60;40.33;;;;;;;-0.21;89.39;100143.47;10497413;28;20044;-71
2021/12/11 14:42:39;;;;;;;75.25;38.95;;;;;;;-0.24;90.36;100149.44;10498453;28;20422;-71
2021/12/11 14:47:41;;;;;;;85.15;41.17;;;;;;;-0.26;90.72;100152.00;10503768;28;20071;-70
2021/12/11 14:52:43;;;;;;;78.68;41.13;;;;;;;-0.37;90.66;100165.59;10504309;28;20102;-72
2021/12/11 14:57:45;;;;;;;74.43;41.75;;;;;;;-0.35;90.21;100167.38;10504399;28;20060;-71
2021/12/11 15:02:50;;;;;;;75.43;39.67;;;;;;;-0.10;89.38;100175.47;10504739;28;20044;-71
2021/12/11 15:07:52;;;;;;;79.45;40.20;;;;;;;-0.35;90.51;100184.59;10506114;28;20076;-72
2021/12/11 15:12:55;;;;;;;79.78;39.83;;;;;;;-0.16;89.96;100196.06;10505679;28;20044;-71
2021/12/11 15:17:57;;;;;;;80.20;40.30;;;;;;;-0.36;91.21;100203.50;10503581;28;20052;-72
2021/12/11 15:23:01;;;;;;;78.85;41.22;;;;;;;-0.07;90.37;100212.53;10506217;28;20048;-72
2021/12/11 15:28:03;;;;;;;73.72;39.58;;;;;;;0.01;90.20;100217.84;10504629;28;20119;-72
2021/12/11 15:33:06;;;;;;;80.53;41.92;;;;;;;-0.06;90.68;100223.75;10503866;28;20052;-71
2021/12/11 15:38:09;;;;;;;85.22;44.22;;;;;;;-0.02;89.99;100225.53;10502534;28;20048;-71
2021/12/11 15:43:17;;;;;;;83.03;41.33;;;;;;;-0.27;90.68;100240.69;10503885;28;20041;-71
2021/12/11 15:48:21;;;;;;;66.97;36.05;;;;;;;-0.27;90.47;100250.13;10504458;28;20098;-70
2021/12/11 15:53:24;;;;;;;96.22;49.30;;;;;;;-0.37;91.28;100253.41;10502944;28;20044;-71
2021/12/11 15:58:28;;;;;;;75.05;40.67;;;;;;;-0.01;90.15;100253.09;10500522;28;20460;-71
2021/12/11 16:03:30;;;;;;;77.82;40.75;;;;;;;-0.23;90.18;100261.38;10503928;28;20079;-72
2021/12/11 16:08:34;;;;;;;76.32;39.30;;;;;;;-0.40;91.27;100266.28;10504364;28;20123;-74
2021/12/11 16:13:37;;;;;;;83.78;39.92;;;;;;;-0.15;90.68;100264.97;10505962;28;20052;-75
2021/12/11 16:18:39;;;;;;;83.15;41.17;;;;;;;-0.22;90.67;100273.44;10502845;28;20049;-75
2021/12/11 16:23:50;;;;;;;76.97;41.33;;;;;;;-0.26;90.59;100280.31;10503941;28;20499;-74
2021/12/11 16:28:52;;;;;;;77.07;39.20;;;;;;;-0.18;90.51;100283.84;10502689;28;20044;-74
2021/12/11 16:33:54;;;;;;;66.55;37.72;;;;;;;-0.09;90.44;100294.34;10503022;28;20098;-74
2021/12/11 16:39:15;;;;;;;78.78;42.15;;;;;;;-0.07;90.63;100305.56;10505089;28;20040;-74
2021/12/11 16:44:20;;;;;;;86.28;45.03;;;;;;;-0.20;91.12;100306.22;10505238;28;20064;-73
2021/12/11 16:49:25;;;;;;;75.15;39.65;;;;;;;0.07;90.53;100312.66;10501424;28;20044;-73
2021/12/11 16:54:32;;;;;;;73.13;39.38;;;;;;;0.09;90.03;100314.44;10504051;28;20114;-73
2021/12/11 16:59:35;;;;;;;81.78;41.72;;;;;;;0.07;89.94;100325.59;10502373;28;20079;-74
2021/12/11 17:04:39;;;;;;;85.45;42.33;;;;;;;-0.08;89.94;100329.69;10503196;28;20044;-74
2021/12/11 17:09:44;;;;;;;75.75;39.47;;;;;;;-0.18;90.49;100343.28;10502605;28;20044;-74
2021/12/11 17:14:48;;;;;;;82.82;43.53;;;;;;;-0.21;90.47;100347.53;10501477;28;20478;-74
2021/12/11 17:19:50;;;;;;;87.65;40.78;;;;;;;-0.29;91.54;100350.84;10501345;28;20048;-74
2021/12/11 17:24:52;;;;;;;76.38;41.05;;;;;;;-0.26;91.18;100371.59;10501186;28;20059;-74
2021/12/11 17:29:54;;;;;;;81.13;40.83;;;;;;;0.08;89.70;100385.06;10502083;28;20048;-73
2021/12/11 17:34:56;;;;;;;74.90;39.60;;;;;;;0.03;89.57;100378.94;10500845;28;20060;-74
2021/12/11 17:39:59;;;;;;;66.65;36.17;;;;;;;0.13;88.80;100385.13;10500776;28;20050;-73
2021/12/11 17:45:05;;;;;;;66.25;35.67;;;;;;;0.08;88.33;100402.28;10500838;28;20510;-74
2021/12/11 17:50:10;;;;;;;68.10;38.87;;;;;;;0.01;89.07;100403.91;10499022;28;20052;-74
2021/12/11 17:55:16;;;;;;;79.18;39.50;;;;;;;-0.04;89.22;100411.59;10500082;28;20044;-74
2021/12/11 18:00:24;;;;;;;77.03;40.10;;;;;;;-0.08;89.32;100411.50;10499060;28;20482;-74
2021/12/11 18:05:32;;;;;;;74.20;38.30;;;;;;;-0.04;89.72;100418.47;10497947;28;20136;-74
2021/12/11 18:10:41;;;;;;;64.25;34.65;;;;;;;0.06;88.80;100420.34;10500500;28;20037;-74
2021/12/11 18:15:52;;;;;;;56.47;32.13;;;;;;;0.25;88.72;100419.81;10500206;28;20045;-74
2021/12/11 18:21:11;;;;;;;64.75;37.50;;;;;;;0.25;88.26;100424.97;10503808;28;20072;-75
2021/12/11 18:26:18;;;;;;;65.43;37.17;;;;;;;0.16;88.64;100436.88;10506141;28;20498;-75
2021/12/11 18:31:23;;;;;;;62.42;34.67;;;;;;;0.06;89.06;100453.09;10508211;28;20032;-74
2021/12/11 18:36:31;;;;;;;69.25;33.92;;;;;;;0.09;88.68;100450.53;10505257;28;20049;-75
2021/12/11 18:41:34;;;;;;;60.30;32.83;;;;;;;0.26;87.62;100451.69;10507299;28;20040;-74
2021/12/11 18:46:41;;;;;;;58.78;33.42;;;;;;;0.17;87.82;100455.00;10505075;28;20559;-74
2021/12/11 18:51:46;;;;;;;51.92;31.10;;;;;;;0.37;87.34;100457.06;10506886;28;20075;-74
2021/12/11 18:56:51;;;;;;;48.33;30.05;;;;;;;0.36;86.69;100458.78;10507789;28;20040;-75
2021/12/11 19:02:00;;;;;;;34.72;25.67;;;;;;;0.41;86.29;100458.84;10507386;28;20044;-74
2021/12/11 19:07:06;;;;;;;31.50;23.88;;;;;;;0.71;84.52;100459.31;10507325;28;20041;-75
2021/12/11 19:12:09;;;;;;;30.48;23.88;;;;;;;0.74;82.80;100455.91;10504219;28;20121;-75
2021/12/11 19:17:12;;;;;;;36.00;25.85;;;;;;;0.50;83.80;100465.03;10505183;28;20127;-74
2021/12/11 19:22:18;;;;;;;25.33;22.38;;;;;;;0.64;81.79;100467.84;10505328;28;20140;-74
2021/12/11 19:27:24;;;;;;;48.22;31.10;;;;;;;0.58;83.65;100479.81;10506275;28;20478;-75
2021/12/11 19:32:26;;;;;;;54.70;32.95;;;;;;;0.57;85.04;100481.50;10503611;28;20048;-75
2021/12/11 19:37:28;;;;;;;60.28;32.83;;;;;;;0.43;85.38;100488.19;10505386;28;20349;-76
2021/12/11 19:42:30;;;;;;;56.47;33.83;;;;;;;0.24;86.90;100495.63;10504583;28;20075;-75
2021/12/11 19:47:31;;;;;;;57.47;33.13;;;;;;;0.07;87.70;100504.81;10504231;28;20044;-74
2021/12/11 19:52:33;;;;;;;62.22;35.15;;;;;;;0.13;87.81;100519.53;10504357;28;20037;-75
2021/12/11 19:57:35;;;;;;;59.60;34.85;;;;;;;0.19;87.15;100512.78;10503926;28;20049;-74
2021/12/11 20:02:38;;;;;;;56.65;33.78;;;;;;;0.03;88.04;100520.22;10504471;28;20461;-75
2021/12/11 20:07:43;;;;;;;53.95;33.70;;;;;;;-0.06;88.53;100531.25;10502381;28;20248;-74
2021/12/11 20:12:59;;;;;;;65.85;35.53;;;;;;;0.30;87.72;100544.00;10502936;28;20151;-74
2021/12/11 20:18:08;;;;;;;64.38;36.00;;;;;;;0.22;87.59;100541.28;10503419;28;20092;-74
2021/12/11 20:23:13;;;;;;;72.80;37.20;;;;;;;0.10;87.51;100551.41;10503754;28;20138;-74
2021/12/11 20:28:20;;;;;;;68.28;37.97;;;;;;;0.10;87.72;100558.28;10502120;28;20078;-74
2021/12/11 20:33:22;;;;;;;71.35;38.53;;;;;;;-0.34;88.44;100566.03;10503166;28;20036;-74
2021/12/11 20:38:24;;;;;;;68.40;36.65;;;;;;;-0.40;89.13;100568.47;10502979;28;20056;-74
2021/12/11 20:43:28;;;;;;;57.80;34.60;;;;;;;-0.58;88.85;100577.56;10502729;28;20044;-74
2021/12/11 20:48:31;;;;;;;64.55;37.47;;;;;;;-0.69;89.24;100586.78;10502132;28;20052;-73
2021/12/11 20:53:35;;;;;;;58.80;35.25;;;;;;;-0.71;89.62;100597.91;10502601;28;20086;-74
2021/12/11 20:58:39;;;;;;;63.75;35.38;;;;;;;-1.08;89.20;100597.91;10502125;28;20478;-74
2021/12/11 21:03:47;;;;;;;53.85;34.55;;;;;;;-1.15;89.90;100595.16;10500955;28;20444;-74
2021/12/11 21:08:53;;;;;;;66.65;35.53;;;;;;;-1.04;90.61;100604.03;10502152;28;20120;-73
2021/12/11 21:13:58;;;;;;;64.32;36.67;;;;;;;-1.29;90.38;100606.00;10502471;28;20044;-75
2021/12/11 21:19:06;;;;;;;69.18;38.90;;;;;;;-1.49;91.13;100607.22;10501578;28;20052;-74
2021/12/11 21:24:14;;;;;;;62.22;33.85;;;;;;;-1.56;91.71;100608.75;10483697;28;20049;-73
2021/12/11 21:29:29;;;;;;;32.90;25.13;;;;;;;-1.52;91.07;100620.88;10501218;28;20045;-74
2021/12/11 21:34:32;;;;;;;29.60;21.92;;;;;;;-1.19;89.04;100619.16;10501217;28;20062;-73
2021/12/11 21:39:43;;;;;;;22.13;19.75;;;;;;;-0.75;86.32;100622.81;10499906;28;20484;-73
2021/12/11 21:44:46;;;;;;;24.77;19.98;;;;;;;-0.62;85.02;100624.81;10500313;28;20482;-74
2021/12/11 21:49:52;;;;;;;22.77;20.40;;;;;;;-0.47;83.25;100631.16;10500269;28;20460;-74
2021/12/11 21:54:57;;;;;;;23.80;19.43;;;;;;;-0.31;82.74;100634.13;10500795;28;20101;-73
2021/12/11 22:00:18;;;;;;;22.00;18.85;;;;;;;-0.44;82.40;100645.03;10502194;28;20287;-73
2021/12/11 22:05:49;;;;;;;19.77;17.63;;;;;;;-0.46;82.38;100657.03;10500890;28;20387;-74
2021/12/11 22:11:00;;;;;;;20.08;18.02;;;;;;;-0.56;82.86;100661.09;10499115;28;20063;-75
2021/12/11 22:16:21;;;;;;;19.48;17.35;;;;;;;-0.72;83.29;100686.53;10498323;28;20053;-73
2021/12/11 22:21:26;;;;;;;19.15;17.27;;;;;;;-0.96;83.20;100702.28;10500800;28;20048;-74
2021/12/11 22:26:32;;;;;;;30.65;23.48;;;;;;;-1.00;84.52;100696.16;10501238;28;20044;-74
2021/12/11 22:31:41;;;;;;;27.65;24.23;;;;;;;-1.14;84.73;100700.09;10499900;28;20097;-73
2021/12/11 22:36:43;;;;;;;39.75;24.90;;;;;;;-1.40;86.06;100702.84;10499704;28;20150;-73
2021/12/11 22:41:52;;;;;;;35.85;25.75;;;;;;;-1.14;85.55;100706.13;10498320;28;20050;-74
2021/12/11 22:46:58;;;;;;;32.53;24.35;;;;;;;-1.41;86.24;100706.28;10500396;28;20052;-73
2021/12/11 22:52:03;;;;;;;28.45;23.88;;;;;;;-1.50;86.51;100712.88;10500461;28;20075;-74
2021/12/11 22:57:14;;;;;;;29.05;24.05;;;;;;;-1.71;87.35;100716.59;10500591;28;20098;-73
2021/12/11 23:02:22;;;;;;;29.25;22.85;;;;;;;-1.96;88.21;100714.13;10500390;28;20098;-74
2021/12/11 23:07:50;;;;;;;33.13;24.20;;;;;;;-2.11;88.76;100723.16;10502841;28;20040;-74
2021/12/11 23:12:59;;;;;;;44.53;27.02;;;;;;;-2.08;89.12;100730.09;10509685;28;20044;-73